Time;durP1;ratioP1;P1;durP2;ratioP2;P2;SDS_P1;SDS_P2;PMS_P1;PMS_P2;Temp;Humidity;BMP_temperature;BMP_pressure;BME280_temperature;BME280_humidity;BME280_pressure;Samples;Min_cycle;Max_cycle;Signal;HPM_P1;HPM_P2
2021/11/08 00:00:04;;;;;;;9.60;1.83;;;16.30;91.10;;;;;;4224657;28;20047;-56
2021/11/08 00:02:29;;;;;;;5.97;2.10;;;16.30;91.10;;;;;;4206402;28;20511;-56
2021/11/08 00:04:53;;;;;;;2.47;1.58;;;16.20;91.00;;;;;;4208176;28;20082;-58
2021/11/08 00:07:16;;;;;;;5.15;1.80;;;16.20;91.00;;;;;;4224170;28;20074;-56
2021/11/08 00:09:41;;;;;;;5.22;2.10;;;16.20;91.10;;;;;;4225022;28;20556;-56
2021/11/08 00:12:04;;;;;;;6.32;2.85;;;16.20;91.10;;;;;;4225692;28;20054;-57
2021/11/08 00:14:27;;;;;;;7.00;2.35;;;16.20;91.00;;;;;;4225333;28;20131;-55
2021/11/08 00:16:57;;;;;;;7.50;2.17;;;16.20;90.90;;;;;;4225041;28;20055;-58
2021/11/08 00:19:39;;;;;;;7.55;1.98;;;16.20;90.90;;;;;;4225379;28;20052;-56
2021/11/08 00:22:04;;;;;;;6.80;2.38;;;16.20;91.20;;;;;;4224876;28;20135;-55
2021/11/08 00:24:27;;;;;;;7.85;2.13;;;16.20;91.20;;;;;;4225183;28;20054;-56
2021/11/08 00:26:49;;;;;;;6.72;2.00;;;16.20;91.20;;;;;;4221045;28;20588;-56
2021/11/08 00:29:12;;;;;;;4.93;1.90;;;16.20;91.10;;;;;;4225101;28;20139;-56
2021/11/08 00:31:34;;;;;;;5.88;2.10;;;16.10;90.90;;;;;;4224868;28;20122;-57
2021/11/08 00:33:56;;;;;;;6.90;2.20;;;16.10;90.90;;;;;;4224801;28;20047;-57
2021/11/08 00:36:18;;;;;;;4.80;1.70;;;16.10;90.80;;;;;;4224852;28;20068;-56
2021/11/08 00:38:41;;;;;;;6.63;2.13;;;16.10;90.70;;;;;;4224894;28;20043;-56
2021/11/08 00:41:04;;;;;;;6.65;2.08;;;16.10;90.80;;;;;;4225080;28;20082;-58
2021/11/08 00:43:28;;;;;;;8.27;1.98;;;16.10;91.40;;;;;;4225031;28;20051;-56
2021/11/08 00:45:51;;;;;;;6.53;2.10;;;16.10;91.10;;;;;;4224430;28;20120;-59
2021/11/08 00:48:15;;;;;;;7.90;2.25;;;16.10;91.10;;;;;;4225058;28;20054;-58
2021/11/08 00:50:38;;;;;;;4.93;1.40;;;16.10;90.80;;;;;;4207891;28;20044;-57
2021/11/08 00:53:01;;;;;;;5.45;1.85;;;16.00;91.20;;;;;;4224894;28;20390;-57
2021/11/08 00:55:26;;;;;;;4.97;1.77;;;16.00;91.20;;;;;;4224556;28;20485;-57
2021/11/08 00:57:49;;;;;;;7.75;1.95;;;16.00;91.30;;;;;;4224866;28;20542;-56
2021/11/08 01:00:13;;;;;;;7.65;2.08;;;16.00;91.30;;;;;;4224646;28;20048;-56
2021/11/08 01:02:36;;;;;;;6.45;1.63;;;16.00;91.10;;;;;;4224840;28;20050;-57
2021/11/08 01:04:59;;;;;;;6.00;1.48;;;16.00;91.20;;;;;;4224664;28;20066;-55
2021/11/08 01:07:21;;;;;;;9.02;2.13;;;15.90;91.40;;;;;;4223419;28;20051;-56
2021/11/08 01:09:44;;;;;;;4.90;1.88;;;16.00;91.40;;;;;;4224431;28;20054;-56
2021/11/08 01:12:09;;;;;;;5.30;1.77;;;15.90;91.30;;;;;;4224653;28;20051;-56
2021/11/08 01:14:31;;;;;;;5.53;1.45;;;15.90;91.20;;;;;;4221808;28;20062;-54
2021/11/08 01:16:58;;;;;;;3.78;1.48;;;15.90;91.30;;;;;;4209326;28;20055;-55
2021/11/08 01:19:20;;;;;;;8.50;2.08;;;15.90;91.50;;;;;;4207843;28;20051;-55
2021/11/08 01:21:42;;;;;;;3.53;1.60;;;15.90;91.40;;;;;;4207234;28;20036;-56
2021/11/08 01:24:05;;;;;;;7.38;1.60;;;15.90;91.60;;;;;;4207368;28;20056;-56
2021/11/08 01:26:28;;;;;;;3.03;0.93;;;15.90;91.50;;;;;;4207557;28;20113;-56
2021/11/08 01:28:51;;;;;;;4.15;1.17;;;15.90;91.60;;;;;;4207416;28;20051;-56
2021/11/08 01:31:15;;;;;;;4.88;1.50;;;15.90;91.60;;;;;;4207379;28;20538;-56
2021/11/08 01:33:38;;;;;;;3.58;1.40;;;15.90;91.60;;;;;;4207769;28;20541;-56
2021/11/08 01:36:12;;;;;;;3.53;1.10;;;15.90;91.60;;;;;;4207547;28;20086;-55
2021/11/08 01:38:39;;;;;;;2.97;1.25;;;15.90;91.60;;;;;;4224210;28;20039;-56
2021/11/08 01:41:01;;;;;;;3.13;1.17;;;15.80;92.00;;;;;;4223961;28;20059;-56
2021/11/08 01:43:24;;;;;;;2.03;0.85;;;15.80;91.50;;;;;;4225302;28;20043;-57
2021/11/08 01:45:47;;;;;;;2.55;1.00;;;15.80;91.50;;;;;;4226887;28;20048;-56
2021/11/08 01:48:12;;;;;;;3.60;1.33;;;15.80;91.30;;;;;;4228020;28;20560;-62
2021/11/08 01:50:34;;;;;;;3.30;1.10;;;15.80;91.20;;;;;;4227067;28;20557;-60
2021/11/08 01:52:57;;;;;;;2.17;1.08;;;15.80;91.30;;;;;;4211085;28;20044;-58
2021/11/08 01:55:21;;;;;;;3.13;0.93;;;15.80;91.70;;;;;;4227794;28;20104;-58
2021/11/08 01:57:45;;;;;;;3.67;1.33;;;15.80;91.30;;;;;;4227635;28;20105;-58
2021/11/08 02:00:10;;;;;;;4.20;1.23;;;15.80;91.40;;;;;;4227280;28;20501;-58
2021/11/08 02:02:35;;;;;;;3.03;1.42;;;15.80;91.40;;;;;;4210682;28;20055;-56
2021/11/08 02:04:57;;;;;;;2.83;0.98;;;15.80;91.50;;;;;;4210594;28;20040;-57
2021/11/08 02:07:19;;;;;;;2.75;1.10;;;15.80;91.30;;;;;;4209971;28;20051;-57
2021/11/08 02:09:40;;;;;;;3.20;1.13;;;15.80;91.40;;;;;;4210390;28;20050;-57
2021/11/08 02:12:03;;;;;;;2.42;0.88;;;15.70;91.20;;;;;;4227303;28;20478;-57
2021/11/08 02:14:25;;;;;;;2.75;1.00;;;15.80;91.20;;;;;;4227418;28;20390;-58
2021/11/08 02:16:47;;;;;;;2.28;1.10;;;15.70;91.40;;;;;;4227099;28;20130;-59
2021/11/08 02:19:11;;;;;;;4.82;1.50;;;15.70;91.40;;;;;;4226988;28;20067;-56
2021/11/08 02:21:36;;;;;;;4.13;1.13;;;15.80;91.30;;;;;;4226761;28;20062;-58
2021/11/08 02:24:00;;;;;;;3.95;1.38;;;15.70;91.30;;;;;;4227226;28;20405;-57
2021/11/08 02:26:22;;;;;;;1.88;1.00;;;15.70;91.30;;;;;;4226134;28;20047;-59
2021/11/08 02:28:45;;;;;;;4.18;1.33;;;15.70;91.40;;;;;;4209074;28;20071;-55
2021/11/08 02:31:09;;;;;;;5.50;1.40;;;15.70;91.40;;;;;;4194778;28;20052;-56
2021/11/08 02:33:31;;;;;;;5.60;1.70;;;15.70;91.40;;;;;;4201246;28;20691;-55
2021/11/08 02:35:54;;;;;;;4.15;1.17;;;15.70;91.50;;;;;;4200276;28;20738;-57
2021/11/08 02:38:21;;;;;;;5.43;1.13;;;15.70;91.50;;;;;;4210027;28;20536;-55
2021/11/08 02:40:43;;;;;;;5.47;1.17;;;15.70;91.40;;;;;;4226570;28;20070;-55
2021/11/08 02:43:06;;;;;;;3.40;1.02;;;15.70;91.70;;;;;;4226705;28;20172;-56
2021/11/08 02:45:30;;;;;;;3.63;1.45;;;15.70;91.60;;;;;;4226951;28;20047;-58
2021/11/08 02:47:54;;;;;;;5.07;1.42;;;15.70;91.50;;;;;;4226498;28;20068;-58
2021/11/08 02:50:17;;;;;;;4.05;1.20;;;15.70;91.70;;;;;;4226725;28;20054;-58
2021/11/08 02:52:39;;;;;;;5.07;1.88;;;15.70;91.80;;;;;;4226535;28;20043;-58
2021/11/08 02:55:03;;;;;;;2.97;0.80;;;15.70;91.40;;;;;;4225944;28;20145;-58
2021/11/08 02:57:27;;;;;;;3.08;1.13;;;15.60;91.50;;;;;;4203598;28;20418;-59
2021/11/08 02:59:50;;;;;;;8.27;1.50;;;15.60;91.70;;;;;;4209813;28;20483;-59
2021/11/08 03:02:14;;;;;;;4.20;1.13;;;15.70;91.60;;;;;;4209763;28;20055;-58
2021/11/08 03:04:39;;;;;;;2.97;1.13;;;15.60;91.60;;;;;;4226386;28;20054;-58
2021/11/08 03:07:02;;;;;;;3.95;1.23;;;15.60;91.60;;;;;;4226461;28;20076;-58
2021/11/08 03:09:30;;;;;;;3.63;1.17;;;15.60;91.50;;;;;;4226321;28;20115;-56
2021/11/08 03:11:54;;;;;;;5.05;1.15;;;15.60;91.40;;;;;;4226078;27;20043;-57
2021/11/08 03:14:18;;;;;;;5.05;1.33;;;15.60;91.50;;;;;;4226406;28;20112;-56
2021/11/08 03:16:44;;;;;;;4.20;1.10;;;15.60;91.60;;;;;;4224976;28;20046;-58
2021/11/08 03:19:16;;;;;;;3.20;1.10;;;15.60;91.50;;;;;;4224799;28;20127;-59
2021/11/08 03:21:37;;;;;;;6.28;1.55;;;15.60;91.60;;;;;;4226270;28;20044;-54
2021/11/08 03:24:03;;;;;;;3.97;1.40;;;15.60;91.60;;;;;;4226308;28;20054;-57
2021/11/08 03:26:39;;;;;;;8.50;1.65;;;15.60;91.40;;;;;;4223523;28;20493;-57
2021/11/08 03:29:05;;;;;;;5.32;1.30;;;15.60;91.60;;;;;;4225978;28;20043;-56
2021/11/08 03:31:29;;;;;;;3.92;1.63;;;15.60;91.60;;;;;;4226370;28;20486;-58
2021/11/08 03:33:52;;;;;;;4.55;0.90;;;15.60;91.70;;;;;;4225939;28;20058;-59
2021/11/08 03:36:15;;;;;;;4.70;1.20;;;15.60;91.60;;;;;;4226148;28;20047;-57
2021/11/08 03:38:39;;;;;;;5.18;1.58;;;15.50;91.50;;;;;;4226067;28;20070;-56
2021/11/08 03:41:01;;;;;;;5.72;1.73;;;15.50;91.70;;;;;;4225926;28;20054;-56
2021/11/08 03:43:23;;;;;;;5.55;2.10;;;15.50;91.60;;;;;;4225861;28;20071;-57
2021/11/08 03:45:48;;;;;;;9.82;1.83;;;15.50;91.50;;;;;;4225198;28;20044;-57
2021/11/08 03:48:12;;;;;;;6.00;1.98;;;15.50;91.40;;;;;;4225816;28;20622;-57
2021/11/08 03:50:34;;;;;;;4.10;1.52;;;15.50;91.40;;;;;;4225822;28;20047;-56
2021/11/08 03:52:56;;;;;;;5.55;1.27;;;15.50;91.70;;;;;;4225740;28;20066;-58
2021/11/08 03:55:20;;;;;;;7.22;1.63;;;15.50;91.60;;;;;;4225862;28;20050;-57
2021/11/08 03:57:42;;;;;;;4.75;1.30;;;15.50;91.40;;;;;;4224010;28;20703;-56
2021/11/08 04:00:05;;;;;;;6.53;1.75;;;15.50;91.70;;;;;;4225168;28;20057;-57
2021/11/08 04:02:29;;;;;;;4.47;1.45;;;15.50;91.60;;;;;;4208633;28;20054;-57
2021/11/08 04:04:52;;;;;;;5.47;1.23;;;15.50;91.50;;;;;;4224954;28;20101;-59
2021/11/08 04:07:14;;;;;;;7.28;1.92;;;15.50;91.60;;;;;;4208243;28;20097;-59
2021/11/08 04:09:37;;;;;;;4.82;1.15;;;15.40;91.60;;;;;;4208426;28;20482;-58
2021/11/08 04:12:01;;;;;;;5.03;1.48;;;15.50;91.50;;;;;;4208483;28;20044;-57
2021/11/08 04:14:24;;;;;;;4.80;1.38;;;15.50;91.60;;;;;;4209808;28;20565;-58
2021/11/08 04:16:47;;;;;;;6.25;1.48;;;15.40;91.70;;;;;;4208216;28;20055;-56
2021/11/08 04:19:13;;;;;;;3.67;1.33;;;15.40;91.50;;;;;;4225395;28;20132;-58
2021/11/08 04:21:36;;;;;;;4.72;1.60;;;15.40;91.30;;;;;;4225014;28;20058;-59
2021/11/08 04:23:58;;;;;;;6.95;1.50;;;15.40;91.20;;;;;;4207802;28;20125;-58
2021/11/08 04:26:25;;;;;;;6.35;1.70;;;15.40;91.50;;;;;;4192812;28;20113;-60
2021/11/08 04:28:52;;;;;;;6.28;1.85;;;15.40;91.50;;;;;;4191665;28;20059;-59
2021/11/08 04:31:14;;;;;;;3.65;1.60;;;15.40;91.60;;;;;;4191601;28;20529;-60
2021/11/08 04:33:44;;;;;;;4.25;1.35;;;15.40;91.70;;;;;;4192135;28;20109;-59
2021/11/08 04:36:28;;;;;;;5.00;1.85;;;15.40;91.70;;;;;;4195376;28;20059;-58
2021/11/08 04:38:57;;;;;;;6.72;1.40;;;15.40;91.60;;;;;;4224755;28;20039;-59
2021/11/08 04:41:35;;;;;;;4.63;1.65;;;15.40;91.80;;;;;;4224452;28;20047;-59
2021/11/08 04:44:06;;;;;;;4.45;1.52;;;15.40;91.80;;;;;;4224621;28;20104;-57
2021/11/08 04:49:16;;;;;;;3.92;1.17;;;15.30;92.20;;;;;;4224169;28;20414;-58
2021/11/08 04:51:48;;;;;;;5.70;1.42;;;15.40;92.20;;;;;;4224635;28;20044;-59
2021/11/08 04:54:18;;;;;;;1.48;1.00;;;15.40;92.10;;;;;;4224178;28;20125;-58
2021/11/08 05:23:44;;;;;;;5.30;1.40;;;15.30;92.40;;;;;;4165491;28;20044;-57
2021/11/08 05:29:53;;;;;;;5.30;1.02;;;15.30;92.50;;;;;;4207512;28;20143;-55
2021/11/08 05:31:27;;;;;;;3.33;1.55;;;15.30;92.50;;;;;;4190714;28;20048;-57
2021/11/08 05:33:48;;;;;;;3.38;1.33;;;15.30;92.60;;;;;;4191015;28;20109;-58
2021/11/08 05:36:11;;;;;;;4.20;1.58;;;15.30;92.40;;;;;;4192636;28;20048;-57
2021/11/08 05:38:34;;;;;;;4.68;1.23;;;15.30;92.40;;;;;;4207409;28;20487;-58
2021/11/08 05:40:56;;;;;;;2.10;1.00;;;15.30;92.40;;;;;;4207404;28;20060;-58
2021/11/08 05:43:18;;;;;;;6.72;1.45;;;15.30;92.30;;;;;;4207315;28;20056;-58
2021/11/08 05:45:42;;;;;;;3.53;1.30;;;15.30;92.30;;;;;;4224001;28;20092;-58
2021/11/08 05:48:05;;;;;;;5.00;1.27;;;15.30;92.30;;;;;;4224300;28;20080;-58
2021/11/08 05:50:29;;;;;;;3.88;1.35;;;15.20;92.40;;;;;;4224262;28;20047;-57
2021/11/08 05:52:54;;;;;;;4.97;1.45;;;15.30;92.40;;;;;;4224431;28;20074;-58
2021/11/08 05:55:18;;;;;;;5.97;1.67;;;15.30;92.40;;;;;;4224441;28;20142;-57
2021/11/08 05:57:44;;;;;;;4.93;0.90;;;15.30;92.50;;;;;;4208382;28;20448;-58
2021/11/08 06:51:21;;;;;;;4.05;1.45;;;15.90;91.60;;;;;;4173856;28;20156;-58
2021/11/08 06:53:46;;;;;;;6.45;1.50;;;15.90;91.60;;;;;;4201572;28;20063;-60
2021/11/08 06:56:08;;;;;;;5.38;2.22;;;15.80;91.90;;;;;;4209703;28;20048;-55
2021/11/08 06:58:32;;;;;;;5.45;1.80;;;15.80;91.50;;;;;;4209980;28;20071;-55
2021/11/08 07:00:55;;;;;;;6.05;1.83;;;15.80;91.50;;;;;;4210193;28;20040;-59
2021/11/08 07:03:18;;;;;;;5.05;1.42;;;15.80;91.60;;;;;;4198480;28;20547;-54
2021/11/08 07:05:40;;;;;;;4.38;1.77;;;15.70;91.60;;;;;;4225121;28;20057;-59
2021/11/08 07:08:03;;;;;;;3.95;1.63;;;15.70;91.60;;;;;;4209871;28;20052;-58
2021/11/08 07:10:27;;;;;;;5.65;1.88;;;15.70;91.70;;;;;;4209523;28;20044;-58
2021/11/08 07:12:49;;;;;;;5.05;1.80;;;15.60;91.70;;;;;;4209520;28;20051;-57
2021/11/08 07:15:12;;;;;;;4.50;1.45;;;15.60;91.70;;;;;;4209312;28;20131;-58
2021/11/08 07:17:35;;;;;;;3.33;1.40;;;15.60;91.60;;;;;;4209641;28;20059;-58
2021/11/08 07:20:00;;;;;;;3.92;1.30;;;15.50;92.10;;;;;;4209444;28;20048;-56
2021/11/08 07:22:22;;;;;;;5.72;1.77;;;15.50;91.80;;;;;;4193665;28;20044;-57
2021/11/08 07:24:43;;;;;;;4.63;1.25;;;15.50;92.20;;;;;;4210203;28;20044;-58
2021/11/08 07:27:06;;;;;;;4.20;2.05;;;15.50;91.90;;;;;;4226069;28;20058;-57
2021/11/08 07:29:28;;;;;;;6.78;1.65;;;15.50;92.00;;;;;;4226249;28;20491;-58
2021/11/08 07:31:53;;;;;;;3.33;1.40;;;15.50;92.00;;;;;;4226225;28;20081;-58
2021/11/08 07:34:15;;;;;;;6.75;1.73;;;15.40;92.20;;;;;;4225890;28;20047;-56
2021/11/08 07:36:38;;;;;;;3.28;1.42;;;15.40;92.20;;;;;;4209172;28;20494;-54
2021/11/08 07:39:00;;;;;;;4.65;1.92;;;15.40;92.40;;;;;;4209362;28;20790;-57
2021/11/08 07:41:22;;;;;;;3.08;1.85;;;15.40;92.50;;;;;;4210200;28;20048;-57
2021/11/08 07:43:47;;;;;;;8.32;2.20;;;15.40;92.40;;;;;;4210167;28;20043;-57
2021/11/08 07:46:09;;;;;;;5.88;1.38;;;15.30;92.40;;;;;;4225706;28;20047;-58
2021/11/08 07:48:33;;;;;;;4.47;2.03;;;15.30;92.40;;;;;;4225759;28;20047;-58
2021/11/08 07:50:57;;;;;;;9.32;2.05;;;15.30;92.50;;;;;;4225381;28;20047;-59
2021/11/08 07:53:19;;;;;;;5.57;1.52;;;15.50;92.50;;;;;;4207439;28;20047;-58
2021/11/08 07:55:41;;;;;;;5.82;1.58;;;15.60;92.30;;;;;;4223975;28;20054;-59
2021/11/08 07:58:04;;;;;;;7.78;1.65;;;15.70;91.90;;;;;;4209561;28;20093;-59
2021/11/08 08:00:26;;;;;;;5.90;1.75;;;15.80;91.70;;;;;;4208875;28;20040;-59
2021/11/08 08:02:50;;;;;;;8.70;2.50;;;15.80;91.60;;;;;;4209667;28;20055;-59
2021/11/08 08:05:13;;;;;;;4.20;1.40;;;15.90;91.30;;;;;;4207993;28;20044;-59
2021/11/08 08:07:36;;;;;;;4.32;1.90;;;15.90;91.20;;;;;;4192243;28;20135;-60
2021/11/08 08:09:58;;;;;;;12.85;2.00;;;15.90;91.20;;;;;;4197442;28;20048;-60
2021/11/08 08:12:20;;;;;;;4.35;1.90;;;15.90;91.20;;;;;;4225452;28;20047;-59
2021/11/08 08:14:42;;;;;;;8.20;1.92;;;15.90;91.10;;;;;;4225582;28;20040;-60
2021/11/08 08:17:05;;;;;;;7.07;1.98;;;15.90;91.20;;;;;;4213210;28;20040;-60
2021/11/08 08:19:27;;;;;;;4.63;1.38;;;15.90;91.20;;;;;;4225376;28;20047;-60
2021/11/08 08:21:50;;;;;;;5.68;1.92;;;15.90;91.20;;;;;;4223810;28;20048;-60
2021/11/08 08:24:12;;;;;;;4.65;2.35;;;15.80;91.20;;;;;;4208727;28;20124;-60
2021/11/08 08:26:38;;;;;;;3.78;1.38;;;15.80;91.10;;;;;;4224978;28;20047;-59
2021/11/08 08:29:03;;;;;;;7.10;1.90;;;15.80;91.10;;;;;;4225129;28;20122;-59
2021/11/08 08:31:25;;;;;;;8.30;2.08;;;15.80;91.20;;;;;;4223529;28;20101;-60
2021/11/08 08:33:48;;;;;;;6.28;1.92;;;15.80;91.30;;;;;;4207078;28;20482;-59
2021/11/08 08:36:10;;;;;;;4.68;1.25;;;15.70;91.30;;;;;;4224055;28;20049;-59
2021/11/08 08:38:33;;;;;;;6.20;1.80;;;15.70;91.40;;;;;;4223807;28;20044;-60
2021/11/08 08:40:56;;;;;;;4.95;1.75;;;15.70;91.30;;;;;;4223699;28;20144;-60
2021/11/08 08:43:20;;;;;;;4.38;1.40;;;15.70;91.30;;;;;;4224270;28;20091;-60
2021/11/08 08:45:42;;;;;;;6.13;1.90;;;15.70;91.30;;;;;;4224507;28;20043;-60
2021/11/08 08:48:06;;;;;;;5.97;1.95;;;15.60;91.40;;;;;;4224692;28;20060;-60
2021/11/08 08:50:29;;;;;;;5.90;1.50;;;15.60;91.40;;;;;;4224706;28;20130;-60
2021/11/08 08:52:51;;;;;;;3.95;1.42;;;15.60;91.50;;;;;;4223906;28;20066;-59
2021/11/08 08:55:15;;;;;;;6.18;1.63;;;15.60;91.50;;;;;;4223816;28;20043;-60
2021/11/08 08:57:37;;;;;;;7.75;1.60;;;15.60;91.40;;;;;;4224561;28;20044;-60
2021/11/08 09:00:00;;;;;;;6.47;1.85;;;15.60;91.50;;;;;;4210711;28;20089;-62
2021/11/08 09:02:40;;;;;;;4.70;1.38;;;15.60;91.50;;;;;;4211745;28;20048;-59
2021/11/08 09:05:03;;;;;;;4.28;1.42;;;15.50;91.50;;;;;;4207927;28;20421;-60
2021/11/08 09:07:25;;;;;;;6.57;1.77;;;15.50;91.50;;;;;;4207609;28;20055;-60
2021/11/08 09:09:48;;;;;;;4.88;1.25;;;15.50;91.40;;;;;;4208113;28;20052;-60
2021/11/08 09:12:11;;;;;;;3.63;1.20;;;15.50;91.60;;;;;;4207576;28;20504;-60
2021/11/08 09:14:34;;;;;;;5.72;1.40;;;15.40;91.50;;;;;;4224419;28;20132;-60
2021/11/08 09:16:56;;;;;;;6.90;1.67;;;15.40;91.60;;;;;;4223897;28;20126;-61
2021/11/08 09:19:18;;;;;;;3.05;1.73;;;15.40;91.60;;;;;;4208486;28;20417;-60
2021/11/08 09:21:40;;;;;;;6.10;1.65;;;15.40;91.60;;;;;;4192296;28;20065;-60
2021/11/08 09:24:05;;;;;;;7.18;1.75;;;15.40;91.70;;;;;;4194991;28;20474;-59
2021/11/08 09:26:29;;;;;;;6.13;1.73;;;15.30;91.60;;;;;;4207918;28;20393;-60
2021/11/08 09:28:54;;;;;;;5.15;2.05;;;15.30;91.80;;;;;;4207868;28;20619;-59
2021/11/08 09:31:16;;;;;;;4.18;1.50;;;15.30;91.70;;;;;;4207349;28;20142;-59
2021/11/08 09:33:38;;;;;;;5.88;1.88;;;15.30;91.80;;;;;;4207734;28;20067;-59
2021/11/08 09:36:04;;;;;;;4.20;1.88;;;15.30;91.90;;;;;;4224324;28;20047;-59
2021/11/08 09:38:27;;;;;;;5.90;1.08;;;15.20;91.80;;;;;;4224752;28;20481;-59
2021/11/08 09:40:49;;;;;;;5.25;1.55;;;15.20;92.00;;;;;;4211481;28;20064;-60
2021/11/08 09:43:14;;;;;;;3.90;1.40;;;15.20;92.00;;;;;;4207556;28;20032;-60
2021/11/08 09:45:37;;;;;;;4.53;1.88;;;15.20;92.10;;;;;;4224236;28;20134;-60
2021/11/08 09:48:00;;;;;;;4.15;1.50;;;15.20;92.10;;;;;;4224485;28;20050;-60
2021/11/08 09:50:25;;;;;;;3.00;1.40;;;15.20;92.20;;;;;;4223967;28;20413;-59
2021/11/08 09:52:49;;;;;;;4.53;1.60;;;15.20;92.20;;;;;;4224440;28;20405;-60
2021/11/08 09:55:13;;;;;;;2.33;1.23;;;15.20;92.20;;;;;;4224211;28;20497;-60
2021/11/08 09:57:57;;;;;;;3.00;1.27;;;15.20;92.50;;;;;;4223663;28;20046;-60
2021/11/08 10:00:23;;;;;;;1.92;1.10;;;15.20;92.20;;;;;;4224749;28;20051;-59
2021/11/08 10:02:52;;;;;;;3.40;1.15;;;15.20;92.20;;;;;;4207856;28;20057;-61
2021/11/08 10:05:14;;;;;;;3.17;1.00;;;15.10;92.30;;;;;;4207855;28;20047;-60
2021/11/08 10:07:36;;;;;;;4.57;1.20;;;15.10;92.30;;;;;;4200182;28;20127;-60
2021/11/08 10:10:00;;;;;;;3.35;1.30;;;15.20;92.40;;;;;;4227275;28;20433;-60
2021/11/08 10:12:22;;;;;;;4.82;1.70;;;15.20;92.40;;;;;;4225821;28;20090;-59
2021/11/08 10:14:44;;;;;;;4.07;1.10;;;15.10;92.40;;;;;;4227275;28;20051;-60
2021/11/08 10:17:06;;;;;;;3.38;1.23;;;15.10;92.40;;;;;;4227223;28;20533;-60
2021/11/08 10:19:32;;;;;;;2.20;1.20;;;15.20;92.40;;;;;;4208239;28;20048;-59
2021/11/08 10:21:56;;;;;;;1.83;1.17;;;15.10;92.40;;;;;;4209691;28;20055;-58
2021/11/08 10:24:21;;;;;;;2.30;1.02;;;15.10;92.50;;;;;;4210159;28;20048;-59
2021/11/08 10:26:45;;;;;;;2.88;1.00;;;15.10;92.50;;;;;;4225657;28;20122;-60
2021/11/08 10:29:11;;;;;;;3.15;1.20;;;15.10;92.80;;;;;;4226937;28;20059;-59
2021/11/08 10:31:35;;;;;;;5.47;1.48;;;15.10;92.40;;;;;;4227215;28;20048;-59
2021/11/08 10:33:59;;;;;;;2.40;0.93;;;15.10;92.50;;;;;;4226872;28;20051;-60
2021/11/08 10:36:23;;;;;;;2.78;1.10;;;15.10;92.60;;;;;;4226813;28;20055;-60
2021/11/08 10:38:47;;;;;;;3.38;1.30;;;15.10;92.60;;;;;;4217428;28;20052;-60
2021/11/08 10:41:13;;;;;;;2.38;1.40;;;15.10;92.50;;;;;;4226550;28;20529;-60
2021/11/08 10:43:37;;;;;;;3.45;1.50;;;15.10;92.50;;;;;;4226691;28;20481;-60
2021/11/08 10:46:01;;;;;;;3.35;1.40;;;15.10;92.50;;;;;;4226811;28;20065;-60
2021/11/08 10:48:28;;;;;;;3.50;1.20;;;15.20;92.60;;;;;;4223346;28;20044;-60
2021/11/08 10:50:52;;;;;;;3.05;1.25;;;15.20;92.50;;;;;;4226369;28;20490;-60
2021/11/08 10:53:15;;;;;;;4.47;1.40;;;15.10;92.50;;;;;;4226126;28;20052;-60
2021/11/08 10:55:37;;;;;;;3.38;1.50;;;15.20;92.60;;;;;;4226694;28;20494;-61
2021/11/08 10:58:08;;;;;;;2.60;1.30;;;15.20;92.50;;;;;;4222557;28;20439;-59
2021/11/08 11:00:31;;;;;;;3.78;1.20;;;15.20;92.50;;;;;;4225913;28;20092;-59
2021/11/08 11:02:53;;;;;;;4.25;1.35;;;15.20;92.70;;;;;;4212493;28;20068;-58
2021/11/08 11:05:17;;;;;;;3.42;1.30;;;15.20;92.60;;;;;;4209472;28;20044;-59
2021/11/08 11:07:42;;;;;;;3.85;1.33;;;15.20;92.50;;;;;;4212256;28;20478;-59
2021/11/08 11:10:09;;;;;;;4.15;1.27;;;15.20;92.50;;;;;;4216420;28;20508;-59
2021/11/08 11:12:31;;;;;;;3.13;1.50;;;15.20;92.60;;;;;;4226009;28;20385;-55
2021/11/08 11:14:57;;;;;;;5.45;1.58;;;15.20;92.60;;;;;;4209453;28;20067;-58
2021/11/08 11:17:22;;;;;;;4.40;1.67;;;15.20;92.60;;;;;;4209389;28;20048;-58
2021/11/08 11:19:44;;;;;;;4.32;1.52;;;15.20;92.60;;;;;;4226069;28;20047;-59
2021/11/08 11:22:10;;;;;;;4.03;1.70;;;15.20;92.60;;;;;;4225610;28;20055;-58
2021/11/08 11:24:41;;;;;;;6.40;1.40;;;15.20;92.70;;;;;;4209603;28;20493;-59
2021/11/08 11:27:04;;;;;;;5.63;1.48;;;15.20;92.70;;;;;;4209387;28;20131;-59
2021/11/08 11:29:28;;;;;;;9.35;2.25;;;15.20;92.80;;;;;;4223526;28;20412;-59
2021/11/08 11:31:51;;;;;;;11.05;2.55;;;15.20;92.70;;;;;;4219225;28;20076;-59
2021/11/08 11:34:15;;;;;;;5.68;1.77;;;15.20;92.70;;;;;;4226294;28;20406;-57
2021/11/08 11:36:38;;;;;;;7.03;1.95;;;15.20;92.70;;;;;;4209357;28;20568;-59
2021/11/08 11:39:04;;;;;;;9.75;2.40;;;15.30;92.60;;;;;;4192424;28;20046;-58
2021/11/08 11:41:29;;;;;;;6.07;2.47;;;15.30;92.60;;;;;;4192431;28;20045;-60
2021/11/08 11:43:57;;;;;;;7.80;2.17;;;15.20;92.70;;;;;;4192420;28;20207;-59
2021/11/08 11:46:21;;;;;;;6.80;2.22;;;15.20;92.70;;;;;;4197055;28;20076;-59
2021/11/08 11:48:43;;;;;;;6.93;2.10;;;15.30;92.70;;;;;;4205013;28;20048;-59
2021/11/08 11:51:08;;;;;;;10.25;2.65;;;15.30;92.60;;;;;;4208490;28;20498;-59
2021/11/08 11:53:33;;;;;;;5.32;2.58;;;15.20;92.60;;;;;;4208693;28;20040;-58
2021/11/08 11:55:55;;;;;;;8.60;2.60;;;15.20;92.60;;;;;;4208999;28;21100;-59
2021/11/08 11:58:19;;;;;;;8.10;2.45;;;15.30;92.60;;;;;;4211286;28;20055;-57
2021/11/08 12:00:45;;;;;;;7.13;2.70;;;15.30;92.60;;;;;;4225205;28;20478;-59
2021/11/08 12:03:07;;;;;;;9.23;2.30;;;15.30;92.60;;;;;;4225710;28;20054;-59
2021/11/08 12:05:30;;;;;;;5.75;2.13;;;15.20;92.70;;;;;;4225637;28;20539;-59
2021/11/08 12:07:54;;;;;;;7.72;2.40;;;15.20;92.70;;;;;;4225470;28;20039;-59
2021/11/08 12:10:16;;;;;;;4.85;1.63;;;15.20;92.70;;;;;;4225606;28;20059;-59
2021/11/08 12:12:38;;;;;;;6.97;3.03;;;15.30;92.70;;;;;;4227354;27;20132;-58
2021/11/08 12:15:07;;;;;;;6.38;3.55;;;15.20;92.70;;;;;;4242008;27;20043;-59
2021/11/08 12:17:36;;;;;;;9.55;2.50;;;15.20;93.10;;;;;;4241783;27;20081;-60
2021/11/08 12:20:06;;;;;;;10.85;3.75;;;15.30;92.80;;;;;;4232785;27;20051;-59
2021/11/08 12:22:29;;;;;;;6.35;1.95;;;15.30;92.80;;;;;;4191318;28;20121;-58
2021/11/08 12:25:00;;;;;;;8.00;2.13;;;15.30;92.80;;;;;;4191508;28;20083;-55
2021/11/08 12:27:34;;;;;;;9.18;4.20;;;15.30;93.10;;;;;;4191971;28;20147;-54
2021/11/08 12:29:56;;;;;;;8.93;2.70;;;15.30;92.70;;;;;;4191823;28;20114;-51
2021/11/08 12:32:18;;;;;;;8.90;3.28;;;15.30;92.80;;;;;;4191987;28;20057;-48
2021/11/08 12:34:45;;;;;;;9.20;4.68;;;15.30;92.90;;;;;;4191846;28;20063;-51
2021/11/08 12:37:07;;;;;;;9.88;3.85;;;15.30;92.90;;;;;;4208224;28;20060;-57
2021/11/08 12:39:30;;;;;;;8.88;2.90;;;15.30;92.90;;;;;;4208366;28;20165;-51
2021/11/08 12:42:00;;;;;;;12.18;5.13;;;15.30;92.80;;;;;;4208178;28;20573;-51
2021/11/08 12:44:32;;;;;;;12.75;3.70;;;15.40;92.70;;;;;;4207512;28;20125;-48
2021/11/08 12:46:57;;;;;;;10.55;4.78;;;15.40;92.70;;;;;;4208177;28;20133;-52
2021/11/08 12:49:29;;;;;;;7.00;2.58;;;15.40;92.70;;;;;;4207901;28;20130;-55
2021/11/08 12:51:55;;;;;;;15.48;3.92;;;15.40;92.30;;;;;;4221731;28;20565;-56
2021/11/08 12:54:18;;;;;;;11.95;2.92;;;15.40;92.40;;;;;;4224369;28;20079;-56
2021/11/08 12:56:43;;;;;;;12.10;3.05;;;15.40;92.40;;;;;;4223296;28;20075;-55
2021/11/08 12:59:14;;;;;;;10.77;4.38;;;15.40;92.20;;;;;;4224412;28;20511;-52
2021/11/08 13:01:40;;;;;;;10.10;4.20;;;15.30;92.00;;;;;;4224930;28;20093;-55
2021/11/08 13:04:09;;;;;;;13.57;4.05;;;15.30;92.30;;;;;;4224649;28;20408;-54
2021/11/08 13:06:33;;;;;;;9.02;3.78;;;15.30;92.10;;;;;;4224648;28;20166;-51
2021/11/08 13:09:09;;;;;;;14.65;3.58;;;15.40;92.20;;;;;;4231220;27;20517;-56
2021/11/08 13:11:38;;;;;;;10.45;3.80;;;15.30;91.90;;;;;;4221661;28;20039;-54
2021/11/08 13:14:04;;;;;;;12.25;3.63;;;15.40;92.00;;;;;;4223905;28;20488;-50
2021/11/08 13:16:33;;;;;;;8.25;2.85;;;15.30;92.30;;;;;;4224444;28;20047;-56
2021/11/08 13:19:05;;;;;;;10.40;2.53;;;15.30;92.20;;;;;;4224536;28;20108;-55
2021/11/08 13:21:27;;;;;;;10.77;3.13;;;15.40;91.30;;;;;;4224317;28;20055;-55
2021/11/08 13:23:54;;;;;;;15.35;5.47;;;15.40;91.40;;;;;;4224297;28;20040;-56
2021/11/08 13:26:18;;;;;;;11.35;4.13;;;15.40;91.20;;;;;;4220860;28;20062;-56
2021/11/08 13:28:41;;;;;;;11.60;3.47;;;15.40;91.90;;;;;;4224710;28;20152;-56
2021/11/08 13:31:06;;;;;;;12.85;5.57;;;15.40;91.80;;;;;;4224231;28;20516;-54
2021/11/08 13:33:30;;;;;;;9.50;4.43;;;15.40;92.50;;;;;;4207468;28;20055;-53
2021/11/08 13:35:54;;;;;;;9.25;2.10;;;15.40;92.30;;;;;;4207166;28;20504;-51
2021/11/08 13:38:18;;;;;;;8.70;2.92;;;15.40;92.20;;;;;;4201065;28;20062;-50
2021/11/08 13:40:43;;;;;;;11.63;3.13;;;15.40;92.30;;;;;;4210525;28;20126;-57
2021/11/08 13:43:14;;;;;;;11.48;3.97;;;15.40;92.30;;;;;;4211115;28;20127;-54
2021/11/08 13:45:47;;;;;;;7.50;3.08;;;15.40;92.00;;;;;;4210490;28;20059;-53
2021/11/08 13:48:24;;;;;;;10.52;4.07;;;15.40;91.90;;;;;;4210512;28;20071;-52
2021/11/08 13:50:46;;;;;;;11.68;4.28;;;15.40;92.00;;;;;;4210747;28;20101;-54
2021/11/08 13:53:09;;;;;;;7.28;2.75;;;15.40;92.60;;;;;;4211197;28;20052;-55